createdAt,value
2022-10-01T00:01:10.737Z,4.65
2022-10-01T00:03:48.955Z,4.80
2022-10-01T00:06:24.877Z,3.13
2022-10-01T00:08:59.417Z,3.70
2022-10-01T00:11:34.322Z,5.07
2022-10-01T00:14:09.793Z,4.28
2022-10-01T00:16:45.629Z,4.22
2022-10-01T00:19:18.774Z,4.15
2022-10-01T00:21:52.142Z,3.70
2022-10-01T00:24:24.987Z,4.50
2022-10-01T00:26:57.762Z,4.93
2022-10-01T00:29:34.238Z,2.80
2022-10-01T00:32:08.057Z,4.47
2022-10-01T00:34:41.044Z,4.68
2022-10-01T00:37:20.819Z,3.85
2022-10-01T00:39:58.200Z,3.53
2022-10-01T00:42:32.941Z,5.57
2022-10-01T00:45:12.883Z,3.08
2022-10-01T00:47:53.585Z,4.80
2022-10-01T00:50:35.750Z,4.50
2022-10-01T00:53:12.979Z,6.63
2022-10-01T00:55:51.918Z,3.90
2022-10-01T00:58:26.327Z,5.22
2022-10-01T01:01:00.834Z,5.55
2022-10-01T01:03:34.194Z,5.35
2022-10-01T01:06:10.954Z,4.25
2022-10-01T01:08:44.555Z,4.10
2022-10-01T01:11:26.246Z,4.97
2022-10-01T01:14:09.382Z,4.97
2022-10-01T01:16:50.529Z,6.93
2022-10-01T01:19:36.055Z,5.38
2022-10-01T01:22:11.739Z,6.55
2022-10-01T01:24:53.868Z,7.35
2022-10-01T01:27:43.708Z,4.53
2022-10-01T01:30:24.853Z,5.65
2022-10-01T01:33:05.821Z,5.80
2022-10-01T01:35:44.198Z,6.60
2022-10-01T01:38:21.074Z,7.65
2022-10-01T01:40:55.847Z,6.10
2022-10-01T01:43:34.514Z,7.32
2022-10-01T01:46:17.972Z,6.53
2022-10-01T01:48:53.854Z,6.50
2022-10-01T01:51:40.845Z,6.40
2022-10-01T01:54:14.768Z,5.38
2022-10-01T01:56:49.720Z,6.45
2022-10-01T01:59:28.314Z,5.93
2022-10-01T02:02:06.887Z,6.90
2022-10-01T02:04:44.429Z,7.15
2022-10-01T02:07:32.324Z,10.43
2022-10-01T02:10:20.031Z,7.53
2022-10-01T02:13:08.887Z,6.30
2022-10-01T02:15:55.249Z,7.65
2022-10-01T02:18:40.578Z,5.30
2022-10-01T02:21:20.722Z,7.15
2022-10-01T02:24:04.514Z,5.95
2022-10-01T02:26:40.965Z,6.00
2022-10-01T02:29:18.667Z,9.45
2022-10-01T02:31:59.569Z,9.07
2022-10-01T02:34:40.254Z,7.63
2022-10-01T02:37:24.248Z,8.40
2022-10-01T02:40:01.871Z,9.07
2022-10-01T02:42:38.326Z,10.45
2022-10-01T02:45:14.440Z,8.77
2022-10-01T02:47:51.788Z,9.27
2022-10-01T02:50:36.970Z,13.75
2022-10-01T02:53:18.915Z,8.50
2022-10-01T02:56:01.838Z,8.63
2022-10-01T02:58:34.495Z,11.15
2022-10-01T03:01:08.775Z,10.93
2022-10-01T03:03:43.343Z,14.32
2022-10-01T03:06:17.793Z,7.63
2022-10-01T03:08:53.174Z,9.93
2022-10-01T03:11:28.205Z,7.50
2022-10-01T03:14:01.377Z,7.40
2022-10-01T03:16:35.761Z,9.02
2022-10-01T03:19:13.602Z,7.88
2022-10-01T03:21:49.191Z,9.02
2022-10-01T03:24:22.014Z,10.48
2022-10-01T03:26:57.658Z,8.10
2022-10-01T03:29:35.285Z,10.82
2022-10-01T03:32:08.906Z,9.95
2022-10-01T03:34:47.242Z,6.65
2022-10-01T03:37:21.679Z,7.47
2022-10-01T03:39:56.286Z,7.32
2022-10-01T03:42:30.704Z,6.47
2022-10-01T03:45:04.004Z,7.00
2022-10-01T03:47:39.663Z,8.80
2022-10-01T03:50:12.577Z,8.25
2022-10-01T03:52:51.276Z,7.47
2022-10-01T03:55:26.817Z,8.55
2022-10-01T03:58:00.220Z,6.43
2022-10-01T04:00:34.918Z,7.47
2022-10-01T04:03:11.387Z,9.02
2022-10-01T04:05:45.789Z,7.13
2022-10-01T04:08:24.275Z,6.25
2022-10-01T04:11:00.057Z,7.75
2022-10-01T04:13:33.260Z,5.63
2022-10-01T04:16:07.229Z,5.75
2022-10-01T04:18:40.888Z,9.27
2022-10-01T04:21:18.583Z,8.30
2022-10-01T04:23:53.068Z,5.55
2022-10-01T04:26:26.181Z,5.97
2022-10-01T04:29:00.601Z,7.15
2022-10-01T04:31:36.335Z,7.30
2022-10-01T04:34:10.381Z,7.80
2022-10-01T04:36:47.080Z,5.35
2022-10-01T04:39:21.455Z,5.60
2022-10-01T04:41:58.776Z,5.53
2022-10-01T04:44:31.901Z,6.22
2022-10-01T04:47:09.507Z,6.35
2022-10-01T04:49:43.637Z,7.25
2022-10-01T04:52:18.922Z,7.20
2022-10-01T04:54:54.480Z,6.95
2022-10-01T04:57:27.265Z,5.72
2022-10-01T05:00:01.182Z,4.88
2022-10-01T05:02:34.682Z,5.60
2022-10-01T05:05:09.267Z,8.38
2022-10-01T05:07:50.625Z,6.50
2022-10-01T05:10:25.649Z,5.65
2022-10-01T05:13:01.310Z,7.57
2022-10-01T05:15:36.026Z,6.07
2022-10-01T05:18:10.071Z,7.97
2022-10-01T05:20:43.150Z,7.07
2022-10-01T05:23:16.515Z,6.05
2022-10-01T05:25:52.707Z,7.85
2022-10-01T05:28:27.110Z,6.30
2022-10-01T05:31:01.325Z,10.15
2022-10-01T05:33:34.605Z,7.75
2022-10-01T05:36:09.339Z,6.60
2022-10-01T05:38:42.418Z,6.88
2022-10-01T05:41:17.013Z,5.63
2022-10-01T05:43:52.126Z,10.60
2022-10-01T05:46:28.315Z,7.63
2022-10-01T05:49:02.971Z,6.03
2022-10-01T05:51:38.611Z,4.80
2022-10-01T05:54:16.333Z,6.43
2022-10-01T05:56:51.703Z,6.28
2022-10-01T05:59:30.999Z,5.50
2022-10-01T06:02:05.679Z,5.40
2022-10-01T06:04:41.215Z,4.70
2022-10-01T06:07:18.803Z,6.45
2022-10-01T06:09:51.876Z,4.95
2022-10-01T06:12:26.148Z,6.78
2022-10-01T06:15:01.090Z,4.60
2022-10-01T06:17:36.241Z,4.63
2022-10-01T06:20:19.250Z,5.97
2022-10-01T06:22:58.767Z,4.97
2022-10-01T06:25:32.230Z,5.10
2022-10-01T06:28:09.079Z,4.40
2022-10-01T06:30:44.562Z,6.00
2022-10-01T06:33:21.924Z,4.65
2022-10-01T06:35:59.266Z,4.20
2022-10-01T06:38:33.393Z,4.70
2022-10-01T06:41:08.622Z,8.65
2022-10-01T06:43:50.594Z,3.95
2022-10-01T06:49:09.007Z,5.05
2022-10-01T06:52:02.426Z,5.93
2022-10-01T06:54:36.367Z,3.97
2022-10-01T06:57:09.202Z,7.05
2022-10-01T06:59:44.420Z,3.95
2022-10-01T07:02:24.368Z,3.17
2022-10-01T07:05:02.359Z,4.15
2022-10-01T07:07:37.444Z,3.50
2022-10-01T07:10:14.794Z,4.25
2022-10-01T07:12:50.117Z,3.25
2022-10-01T07:15:26.041Z,2.90
2022-10-01T07:17:58.977Z,3.20
2022-10-01T07:20:38.328Z,3.33
2022-10-01T07:23:14.112Z,4.38
2022-10-01T07:25:47.273Z,3.25
2022-10-01T07:28:25.753Z,3.00
2022-10-01T07:31:06.531Z,2.25
2022-10-01T07:33:39.901Z,2.70
2022-10-01T07:36:13.416Z,2.75
2022-10-01T07:38:53.263Z,2.40
2022-10-01T07:41:27.621Z,2.10
2022-10-01T07:44:05.034Z,1.55
2022-10-01T07:46:39.993Z,2.65
2022-10-01T07:49:13.222Z,2.92
2022-10-01T07:51:48.775Z,2.30
2022-10-01T07:54:22.212Z,2.53
2022-10-01T07:56:56.752Z,1.95
2022-10-01T07:59:32.274Z,2.13
2022-10-01T08:02:19.864Z,3.05
2022-10-01T08:05:10.641Z,1.98
2022-10-01T08:07:43.424Z,2.00
2022-10-01T08:10:18.199Z,1.70
2022-10-01T08:12:51.124Z,1.60
2022-10-01T08:15:24.034Z,2.00
2022-10-01T08:18:04.608Z,1.98
2022-10-01T08:20:37.532Z,1.88
2022-10-01T08:23:12.989Z,1.50
2022-10-01T08:25:50.637Z,1.98
2022-10-01T08:28:23.909Z,1.80
2022-10-01T08:30:58.555Z,1.58
2022-10-01T08:33:35.325Z,2.25
2022-10-01T08:36:09.202Z,2.55
2022-10-01T08:38:45.818Z,1.98
2022-10-01T08:41:32.686Z,2.22
2022-10-01T08:44:10.610Z,1.50
2022-10-01T08:46:46.477Z,2.03
2022-10-01T08:49:24.747Z,2.05
2022-10-01T08:52:03.936Z,3.10
2022-10-01T08:54:42.380Z,4.18
2022-10-01T08:57:19.119Z,3.47
2022-10-01T08:59:59.035Z,1.90
2022-10-01T09:02:34.819Z,4.43
2022-10-01T09:05:25.000Z,3.08
2022-10-01T09:08:15.314Z,2.00
2022-10-01T09:10:55.406Z,2.15
2022-10-01T09:13:54.651Z,2.08
2022-10-01T09:16:36.578Z,2.83
2022-10-01T09:19:22.541Z,2.50
2022-10-01T09:22:00.071Z,2.03
2022-10-01T09:24:43.625Z,1.98
2022-10-01T09:27:26.096Z,1.70
2022-10-01T09:30:03.223Z,3.75
2022-10-01T09:32:42.720Z,2.45
2022-10-01T09:35:28.421Z,1.33
2022-10-01T09:38:07.998Z,1.10
2022-10-01T09:40:54.931Z,1.95
2022-10-01T09:43:30.383Z,1.58
2022-10-01T09:46:07.111Z,1.85
2022-10-01T09:48:46.662Z,1.55
2022-10-01T09:51:25.223Z,1.75
2022-10-01T09:54:05.603Z,2.20
2022-10-01T09:56:45.164Z,2.45
2022-10-01T09:59:27.021Z,1.95
2022-10-01T10:07:22.051Z,1.23
2022-10-01T10:09:58.937Z,1.38
2022-10-01T10:12:33.998Z,1.48
2022-10-01T10:15:16.566Z,1.40
2022-10-01T10:17:52.469Z,1.08
2022-10-01T10:20:34.111Z,1.80
2022-10-01T10:23:13.604Z,1.38
2022-10-01T10:26:00.839Z,2.17
2022-10-01T10:28:44.042Z,1.50
2022-10-01T10:31:20.247Z,1.70
2022-10-01T10:33:58.779Z,1.92
2022-10-01T10:36:35.253Z,1.40
2022-10-01T10:39:21.363Z,1.60
2022-10-01T10:41:58.472Z,2.28
2022-10-01T10:44:36.209Z,1.38
2022-10-01T10:47:13.675Z,2.67
2022-10-01T10:49:49.029Z,1.25
2022-10-01T10:52:26.030Z,3.08
2022-10-01T10:55:00.429Z,2.25
2022-10-01T10:57:36.673Z,1.35
2022-10-01T11:00:15.609Z,2.05
2022-10-01T11:02:55.645Z,1.42
2022-10-01T11:05:32.086Z,2.85
2022-10-01T11:08:07.656Z,1.23
2022-10-01T11:10:49.555Z,1.40
2022-10-01T11:14:01.534Z,1.40
2022-10-01T11:16:49.841Z,1.42
2022-10-01T11:19:38.865Z,2.40
2022-10-01T11:22:28.297Z,2.38
2022-10-01T11:25:18.775Z,1.75
2022-10-01T11:28:03.328Z,1.60
2022-10-01T11:30:48.448Z,2.28
2022-10-01T11:33:34.705Z,1.70
2022-10-01T11:36:17.856Z,2.80
2022-10-01T11:38:59.590Z,1.98
2022-10-01T11:41:38.321Z,2.17
2022-10-01T11:44:17.604Z,1.65
2022-10-01T11:46:58.792Z,1.95
2022-10-01T11:49:45.321Z,2.35
2022-10-01T11:52:27.950Z,1.30
2022-10-01T11:55:30.344Z,1.45
2022-10-01T11:58:26.679Z,1.98
2022-10-01T12:01:09.413Z,1.48
2022-10-01T12:03:52.128Z,6.88
2022-10-01T12:06:34.115Z,6.50
2022-10-01T12:09:15.274Z,3.63
2022-10-01T12:11:52.795Z,2.80
2022-10-01T12:14:32.443Z,1.83
2022-10-01T12:17:16.174Z,1.75
2022-10-01T12:19:52.785Z,2.53
2022-10-01T12:22:31.037Z,2.20
2022-10-01T12:25:03.850Z,1.85
2022-10-01T12:27:44.392Z,2.25
2022-10-01T12:30:21.038Z,1.77
2022-10-01T12:33:06.543Z,1.13
2022-10-01T12:35:53.346Z,6.47
2022-10-01T12:38:45.129Z,2.35
2022-10-01T12:41:31.718Z,1.75
2022-10-01T12:44:47.152Z,2.58
2022-10-01T12:47:35.355Z,1.63
2022-10-01T12:50:22.411Z,1.55
2022-10-01T12:53:09.785Z,2.65
2022-10-01T12:55:56.602Z,1.83
2022-10-01T12:58:47.302Z,1.42
2022-10-01T13:01:34.700Z,3.38
2022-10-01T13:04:32.093Z,1.13
2022-10-01T13:07:34.450Z,1.55
2022-10-01T13:10:23.157Z,1.45
2022-10-01T13:13:03.023Z,1.42
2022-10-01T13:15:38.316Z,2.15
2022-10-01T13:18:22.899Z,1.50
2022-10-01T13:21:02.614Z,1.02
2022-10-01T13:23:41.660Z,1.80
2022-10-01T13:26:20.793Z,1.20
2022-10-01T13:29:03.095Z,1.27
2022-10-01T13:31:40.113Z,1.67
2022-10-01T13:34:35.300Z,1.52
2022-10-01T13:37:16.586Z,1.65
2022-10-01T13:39:49.645Z,5.85
2022-10-01T13:42:27.571Z,1.27
2022-10-01T13:45:04.891Z,1.63
2022-10-01T13:47:41.288Z,1.75
2022-10-01T13:50:23.913Z,2.67
2022-10-01T13:53:08.484Z,2.38
2022-10-01T13:55:44.042Z,4.00
2022-10-01T13:58:32.165Z,2.55
2022-10-01T14:01:29.257Z,1.33
2022-10-01T14:04:15.675Z,1.98
2022-10-01T14:06:55.763Z,1.48
2022-10-01T14:09:35.124Z,1.40
2022-10-01T14:12:32.987Z,2.25
2022-10-01T14:15:42.214Z,2.10
2022-10-01T14:18:22.322Z,1.23
2022-10-01T14:21:05.377Z,2.58
2022-10-01T14:23:45.758Z,1.45
2022-10-01T14:26:25.120Z,1.20
2022-10-01T14:29:11.425Z,1.73
2022-10-01T14:31:56.465Z,1.50
2022-10-01T14:34:46.140Z,1.25
2022-10-01T14:37:20.458Z,1.33
2022-10-01T14:40:02.648Z,1.08
2022-10-01T14:42:35.433Z,1.00
2022-10-01T14:45:16.889Z,0.77
2022-10-01T14:47:50.135Z,0.98
2022-10-01T14:50:25.463Z,2.45
2022-10-01T14:52:58.957Z,1.50
2022-10-01T14:55:35.583Z,1.55
2022-10-01T14:58:08.497Z,1.67
2022-10-01T15:00:51.163Z,1.05
2022-10-01T15:03:24.507Z,0.77
2022-10-01T15:06:05.582Z,1.00
2022-10-01T15:08:41.258Z,1.83
2022-10-01T15:11:17.497Z,1.15
2022-10-01T15:13:52.635Z,0.95
2022-10-01T15:16:28.111Z,0.70
2022-10-01T15:19:03.515Z,1.27
2022-10-01T15:21:40.991Z,0.70
2022-10-01T15:24:22.970Z,3.28
2022-10-01T15:27:00.870Z,2.15
2022-10-01T15:29:33.982Z,1.55
2022-10-01T15:32:08.086Z,0.65
2022-10-01T15:34:44.847Z,0.85
2022-10-01T15:37:23.091Z,0.65
2022-10-01T15:39:57.072Z,1.20
2022-10-01T15:42:32.935Z,1.38
2022-10-01T15:45:22.815Z,1.38
2022-10-01T15:47:58.093Z,0.77
2022-10-01T15:50:36.484Z,1.55
2022-10-01T15:53:20.287Z,2.13
2022-10-01T15:55:57.324Z,0.93
2022-10-01T15:58:32.556Z,0.90
2022-10-01T16:01:09.259Z,0.95
2022-10-01T16:03:50.819Z,0.70
2022-10-01T16:06:37.944Z,0.90
2022-10-01T16:09:19.552Z,0.85
2022-10-01T16:11:57.033Z,0.80
2022-10-01T16:14:32.623Z,1.02
2022-10-01T16:17:28.677Z,0.70
2022-10-01T16:20:23.376Z,1.00
2022-10-01T16:23:34.947Z,0.60
2022-10-01T16:26:33.326Z,1.38
2022-10-01T16:29:23.557Z,0.60
2022-10-01T16:31:57.213Z,0.80
2022-10-01T16:34:30.025Z,0.68
2022-10-01T16:37:03.904Z,0.47
2022-10-01T16:39:36.911Z,0.70
2022-10-01T16:42:24.270Z,1.40
2022-10-01T16:44:57.497Z,2.28
2022-10-01T16:47:30.432Z,1.52
2022-10-01T16:50:03.280Z,0.90
2022-10-01T16:52:37.567Z,0.80
2022-10-01T16:55:18.918Z,3.78
2022-10-01T16:57:54.844Z,1.88
2022-10-01T17:00:28.972Z,0.73
2022-10-01T17:03:02.513Z,0.65
2022-10-01T17:05:37.393Z,0.60
2022-10-01T17:08:15.309Z,4.30
2022-10-01T17:10:53.772Z,0.50
2022-10-01T17:13:29.024Z,0.98
2022-10-01T17:16:04.981Z,1.23
2022-10-01T17:18:39.468Z,0.85
2022-10-01T17:21:13.304Z,1.65
2022-10-01T17:23:49.940Z,0.70
2022-10-01T17:26:26.474Z,0.65
2022-10-01T17:29:05.649Z,1.25
2022-10-01T17:31:45.722Z,1.45
2022-10-01T17:34:19.920Z,3.30
2022-10-01T17:36:52.953Z,0.80
2022-10-01T17:39:26.137Z,0.98
2022-10-01T17:41:59.181Z,1.30
2022-10-01T17:44:33.619Z,1.10
2022-10-01T17:47:06.675Z,0.43
2022-10-01T17:49:39.721Z,3.15
2022-10-01T17:52:13.183Z,0.50
2022-10-01T17:54:46.270Z,1.00
2022-10-01T17:57:19.248Z,1.23
2022-10-01T17:59:55.715Z,0.60
2022-10-01T18:02:47.237Z,0.60
2022-10-01T18:05:20.234Z,1.02
2022-10-01T18:07:53.545Z,0.70
2022-10-01T18:10:26.679Z,0.73
2022-10-01T18:13:00.165Z,0.28
2022-10-01T18:15:34.585Z,0.25
2022-10-01T18:19:31.120Z,0.40
2022-10-01T18:21:07.697Z,0.73
2022-10-01T18:23:40.912Z,0.80
2022-10-01T18:26:14.252Z,0.60
2022-10-01T18:28:47.474Z,1.92
2022-10-01T18:31:26.670Z,0.40
2022-10-01T18:34:01.510Z,0.60
2022-10-01T18:36:42.967Z,0.50
2022-10-01T18:39:22.775Z,1.23
2022-10-01T18:41:55.827Z,0.60
2022-10-01T18:44:28.714Z,1.17
2022-10-01T18:47:21.399Z,0.50
2022-10-01T18:50:09.292Z,1.05
2022-10-01T18:52:56.260Z,1.77
2022-10-01T18:55:49.979Z,1.27
2022-10-01T18:58:42.991Z,0.32
2022-10-01T19:01:28.216Z,0.40
2022-10-01T19:04:44.866Z,0.57
2022-10-01T19:07:29.826Z,0.60
2022-10-01T19:10:13.449Z,0.52
2022-10-01T19:12:56.385Z,0.25
2022-10-01T19:15:40.208Z,0.88
2022-10-01T19:18:38.690Z,0.50
2022-10-01T19:21:24.590Z,0.45
2022-10-01T19:24:17.150Z,0.45
2022-10-01T19:26:58.494Z,0.30
2022-10-01T19:29:48.651Z,0.32
2022-10-01T19:32:26.309Z,0.30
2022-10-01T19:35:04.835Z,0.32
2022-10-01T19:37:42.503Z,1.73
2022-10-01T19:40:22.913Z,0.65
2022-10-01T19:43:04.839Z,0.57
2022-10-01T19:45:46.445Z,0.85
2022-10-01T19:48:23.236Z,0.28
2022-10-01T19:51:03.908Z,0.30
2022-10-01T19:53:38.555Z,0.13
2022-10-01T19:56:21.535Z,0.20
2022-10-01T19:58:54.651Z,0.47
2022-10-01T20:01:35.333Z,0.10
2022-10-01T20:04:16.009Z,0.28
2022-10-01T20:06:49.291Z,1.77
2022-10-01T20:09:28.306Z,2.03
2022-10-01T20:12:10.915Z,0.40
2022-10-01T20:15:12.618Z,1.00
2022-10-01T20:18:03.874Z,0.43
2022-10-01T20:20:41.601Z,0.63
2022-10-01T20:23:34.019Z,0.65
2022-10-01T20:26:17.054Z,1.38
2022-10-01T20:29:14.380Z,0.77
2022-10-01T20:31:56.875Z,0.57
2022-10-01T20:34:41.650Z,0.47
2022-10-01T20:37:35.099Z,0.70
2022-10-01T20:40:18.356Z,0.38
2022-10-01T20:42:56.190Z,0.50
2022-10-01T20:45:34.004Z,0.80
2022-10-01T20:48:13.042Z,0.35
2022-10-01T20:50:48.534Z,0.75
2022-10-01T20:53:32.171Z,0.30
2022-10-01T20:56:13.225Z,0.70
2022-10-01T20:58:51.862Z,1.33
2022-10-01T21:01:30.668Z,0.47
2022-10-01T21:04:09.313Z,1.27
2022-10-01T21:06:47.384Z,0.50
2022-10-01T21:09:26.153Z,0.32
2022-10-01T21:12:04.508Z,0.82
2022-10-01T21:14:43.431Z,1.05
2022-10-01T21:17:30.895Z,0.85
2022-10-01T21:20:30.356Z,1.52
2022-10-01T21:23:18.297Z,1.35
2022-10-01T21:26:02.811Z,0.80
2022-10-01T21:28:50.298Z,0.88
2022-10-01T21:31:36.044Z,0.63
2022-10-01T21:34:14.370Z,0.60
2022-10-01T21:36:56.291Z,0.22
2022-10-01T21:39:34.023Z,0.28
2022-10-01T21:42:16.454Z,0.47
2022-10-01T21:45:05.900Z,2.38
2022-10-01T21:47:59.136Z,1.38
2022-10-01T21:50:45.657Z,0.70
2022-10-01T21:53:39.854Z,1.23
2022-10-01T21:56:27.642Z,0.40
2022-10-01T21:59:07.673Z,0.40
2022-10-01T22:01:59.937Z,1.80
2022-10-01T22:04:50.280Z,1.05
2022-10-01T22:07:29.775Z,0.70
2022-10-01T22:10:12.704Z,0.47
2022-10-01T22:12:49.758Z,1.20
2022-10-01T22:15:28.931Z,0.90
2022-10-01T22:18:05.407Z,0.95
2022-10-01T22:20:43.350Z,2.50
2022-10-01T22:23:19.006Z,0.73
2022-10-01T22:25:58.319Z,0.70
2022-10-01T22:28:37.430Z,0.80
2022-10-01T22:31:18.327Z,0.57
2022-10-01T22:33:56.196Z,0.50
2022-10-01T22:36:36.467Z,1.00
2022-10-01T22:39:16.547Z,1.67
2022-10-01T22:41:54.009Z,1.40
2022-10-01T22:44:29.317Z,0.52
2022-10-01T22:47:19.761Z,0.68
2022-10-01T22:50:32.522Z,1.05
2022-10-01T22:53:22.775Z,0.40
2022-10-01T22:55:59.359Z,0.50
2022-10-01T22:58:47.182Z,0.98
2022-10-01T23:01:30.542Z,0.85
2022-10-01T23:04:21.079Z,1.58
2022-10-01T23:07:02.632Z,1.30
2022-10-01T23:09:44.556Z,0.60
2022-10-01T23:12:30.517Z,0.63
2022-10-01T23:15:17.739Z,0.88
2022-10-01T23:18:01.094Z,1.60
2022-10-01T23:20:38.114Z,1.48
2022-10-01T23:23:33.548Z,1.25
2022-10-01T23:26:21.584Z,1.52
2022-10-01T23:29:09.674Z,0.32
2022-10-01T23:31:53.671Z,1.02
2022-10-01T23:34:39.544Z,0.95
2022-10-01T23:37:38.838Z,2.70
2022-10-01T23:40:19.385Z,1.13
2022-10-01T23:43:00.874Z,2.00
2022-10-01T23:45:39.682Z,1.77
2022-10-01T23:48:18.449Z,0.65
2022-10-01T23:50:58.706Z,1.00
2022-10-01T23:53:37.011Z,0.98
2022-10-01T23:56:34.090Z,2.55
2022-10-01T23:59:13.766Z,1.15
